Time;durP1;ratioP1;P1;durP2;ratioP2;P2;SDS_P1;SDS_P2;PMS_P1;PMS_P2;Temp;Humidity;BMP_temperature;BMP_pressure;BME280_temperature;BME280_humidity;BME280_pressure;Samples;Min_cycle;Max_cycle;Signal;HPM_P1;HPM_P2
2022/06/11 00:01:34;;;;;;;5.72;0.95;;;15.60;99.90;;;;;;5037101;28;20020;-73
2022/06/11 00:04:09;;;;;;;2.40;0.88;;;15.60;99.90;;;;;;5054913;28;20029;-72
2022/06/11 00:06:42;;;;;;;6.85;1.05;;;15.60;99.90;;;;;;5054841;28;20032;-72
2022/06/11 00:09:09;;;;;;;6.75;1.63;;;15.80;99.90;;;;;;5054828;28;20032;-72
2022/06/11 00:11:35;;;;;;;3.35;0.55;;;15.80;99.90;;;;;;5054614;28;20033;-72
2022/06/11 00:14:00;;;;;;;2.70;0.38;;;15.80;99.90;;;;;;5054152;28;20032;-72
2022/06/11 00:16:27;;;;;;;1.60;0.20;;;15.80;99.90;;;;;;5054556;28;20025;-72
2022/06/11 00:18:55;;;;;;;0.77;0.20;;;15.80;99.90;;;;;;5054759;28;20382;-72
2022/06/11 00:21:24;;;;;;;1.35;0.73;;;15.70;99.90;;;;;;5054551;28;20052;-72
2022/06/11 00:23:49;;;;;;;;;;;15.70;99.90;;;;;;5054879;28;20025;-72
2022/06/11 00:26:15;;;;;;;3.50;0.35;;;15.70;99.90;;;;;;5054303;28;19905;-73
2022/06/11 00:28:41;;;;;;;1.77;0.20;;;15.70;99.90;;;;;;5036380;28;20043;-73
2022/06/11 00:31:08;;;;;;;2.95;0.50;;;15.70;99.90;;;;;;5054318;28;20017;-73
2022/06/11 00:33:36;;;;;;;4.00;0.30;;;15.80;99.90;;;;;;5054705;28;20031;-73
2022/06/11 00:36:02;;;;;;;3.22;0.25;;;15.80;99.90;;;;;;5054074;28;20033;-73
2022/06/11 00:38:28;;;;;;;0.80;0.10;;;15.70;99.90;;;;;;5054289;28;20017;-73
2022/06/11 00:40:54;;;;;;;1.23;0.10;;;15.70;99.90;;;;;;5054062;28;20036;-73
2022/06/11 00:43:23;;;;;;;2.50;0.68;;;15.70;99.90;;;;;;5054381;28;20029;-73
2022/06/11 00:45:58;;;;;;;0.60;0.10;;;15.70;99.90;;;;;;5053813;28;20029;-73
2022/06/11 00:48:34;;;;;;;2.88;0.10;;;16.00;99.90;;;;;;5054054;28;20044;-73
2022/06/11 00:51:15;;;;;;;1.85;0.10;;;15.70;99.90;;;;;;5053996;28;20029;-73
2022/06/11 00:53:48;;;;;;;1.90;0.43;;;15.70;99.90;;;;;;5054575;28;20020;-73
2022/06/11 00:56:47;;;;;;;1.75;0.10;;;15.70;99.90;;;;;;5054063;28;20025;-73
2022/06/11 00:59:15;;;;;;;;;;;15.70;99.90;;;;;;5037202;28;20041;-73
2022/06/11 01:01:40;;;;;;;3.00;0.25;;;15.80;99.90;;;;;;5053720;28;20270;-72
2022/06/11 01:04:37;;;;;;;1.30;0.00;;;15.70;99.90;;;;;;5053594;28;20028;-72
2022/06/11 01:07:34;;;;;;;1.73;0.55;;;15.70;99.90;;;;;;5053566;28;20021;-73
2022/06/11 01:10:30;;;;;;;2.85;0.13;;;15.70;99.90;;;;;;5053620;28;20029;-73
2022/06/11 01:13:01;;;;;;;3.88;0.13;;;15.60;99.90;;;;;;5053841;28;20029;-72
2022/06/11 01:15:36;;;;;;;0.15;0.00;;;15.60;99.90;;;;;;5053777;28;20031;-74
2022/06/11 01:18:07;;;;;;;2.15;0.10;;;15.50;99.90;;;;;;5054145;28;20029;-73
2022/06/11 01:21:01;;;;;;;3.08;0.10;;;15.50;99.90;;;;;;5053698;28;20025;-73
2022/06/11 01:23:37;;;;;;;2.60;0.05;;;15.50;99.90;;;;;;5035581;28;20449;-73
2022/06/11 01:26:40;;;;;;;1.90;0.03;;;15.50;99.90;;;;;;5052762;28;20142;-72
2022/06/11 01:29:30;;;;;;;1.67;0.38;;;15.50;99.90;;;;;;5053992;28;20017;-73
2022/06/11 01:32:06;;;;;;;3.75;0.10;;;15.50;99.90;;;;;;5053550;28;20029;-73
2022/06/11 01:34:40;;;;;;;3.20;0.43;;;15.50;99.90;;;;;;5053248;28;20474;-73
2022/06/11 01:37:30;;;;;;;1.25;0.00;;;15.50;99.90;;;;;;5053148;28;20045;-73
2022/06/11 01:40:06;;;;;;;1.63;0.10;;;15.40;99.90;;;;;;5035358;28;20032;-72
2022/06/11 01:42:38;;;;;;;1.45;0.17;;;15.40;99.90;;;;;;5053284;28;20021;-72
2022/06/11 01:45:09;;;;;;;4.32;0.08;;;15.40;99.90;;;;;;5053085;28;20025;-72
2022/06/11 01:47:36;;;;;;;1.90;0.08;;;15.40;99.90;;;;;;5053191;28;20082;-73
2022/06/11 01:50:04;;;;;;;2.85;0.10;;;15.40;99.90;;;;;;5053551;28;20029;-73
2022/06/11 01:52:58;;;;;;;1.75;0.13;;;15.30;99.90;;;;;;5053347;28;20021;-73
2022/06/11 01:55:56;;;;;;;3.50;0.10;;;15.30;99.90;;;;;;5035197;28;20036;-72
2022/06/11 01:58:43;;;;;;;2.50;0.68;;;15.30;99.90;;;;;;5005292;28;20060;-72
2022/06/11 02:01:30;;;;;;;2.92;0.30;;;15.30;99.90;;;;;;5035147;28;20029;-73
2022/06/11 02:04:03;;;;;;;2.17;0.00;;;15.40;99.90;;;;;;5035255;28;20486;-75
2022/06/11 02:06:52;;;;;;;2.10;0.00;;;15.30;99.90;;;;;;5035197;28;20048;-73
2022/06/11 02:10:13;;;;;;;2.03;0.10;;;15.40;99.90;;;;;;5053843;28;20049;-74
2022/06/11 02:12:44;;;;;;;3.00;0.15;;;15.40;99.90;;;;;;4974577;28;20068;-73
2022/06/11 02:15:51;;;;;;;0.60;0.10;;;15.40;99.90;;;;;;5053002;28;20025;-73
2022/06/11 02:18:21;;;;;;;3.08;0.00;;;15.50;99.90;;;;;;5034552;28;20048;-73
2022/06/11 02:20:56;;;;;;;1.98;0.00;;;15.50;99.90;;;;;;5035023;28;20108;-73
2022/06/11 02:23:37;;;;;;;1.70;0.03;;;15.40;99.90;;;;;;5052905;28;20025;-73
2022/06/11 02:26:27;;;;;;;0.88;0.00;;;15.30;99.90;;;;;;5053304;28;20049;-73
2022/06/11 02:28:54;;;;;;;2.58;0.00;;;15.30;99.90;;;;;;5052805;28;20025;-72
2022/06/11 02:31:25;;;;;;;2.78;0.20;;;15.30;99.90;;;;;;5052690;28;20111;-73
2022/06/11 02:33:52;;;;;;;1.08;0.10;;;15.30;99.90;;;;;;5053314;28;20063;-73
2022/06/11 02:36:27;;;;;;;1.67;0.00;;;15.30;99.90;;;;;;5053866;28;20029;-72
2022/06/11 02:38:55;;;;;;;8.38;0.17;;;15.40;99.90;;;;;;5056547;28;20055;-72
2022/06/11 02:41:29;;;;;;;4.97;0.17;;;15.40;99.90;;;;;;5056547;28;20029;-72
2022/06/11 02:43:54;;;;;;;3.33;0.40;;;15.30;99.90;;;;;;5056620;28;20025;-72
2022/06/11 02:49:06;;;;;;;2.85;0.10;;;15.30;99.90;;;;;;5056667;28;20080;-72
2022/06/11 02:51:32;;;;;;;2.28;0.10;;;15.30;99.90;;;;;;5056104;28;20413;-72
2022/06/11 02:53:58;;;;;;;4.82;0.55;;;15.20;99.90;;;;;;5038243;28;20025;-72
2022/06/11 02:56:24;;;;;;;1.98;0.10;;;15.50;99.90;;;;;;5038269;28;20021;-72
2022/06/11 02:58:50;;;;;;;4.13;0.22;;;15.20;99.90;;;;;;5038276;28;20413;-72
2022/06/11 03:01:17;;;;;;;2.08;0.38;;;15.20;99.90;;;;;;5056532;28;20488;-72
2022/06/11 03:03:49;;;;;;;0.73;0.00;;;15.40;99.90;;;;;;5055965;28;20025;-72
2022/06/11 03:06:15;;;;;;;2.75;0.10;;;15.10;99.90;;;;;;5038009;28;20439;-72
2022/06/11 03:08:41;;;;;;;1.55;0.00;;;15.10;99.90;;;;;;5056466;28;20025;-72
2022/06/11 03:11:07;;;;;;;4.38;0.40;;;15.10;99.90;;;;;;5055872;28;20401;-72
2022/06/11 03:13:33;;;;;;;3.70;0.40;;;15.00;99.90;;;;;;5055851;28;20079;-72
2022/06/11 03:15:59;;;;;;;6.10;0.10;;;15.10;99.90;;;;;;5055714;28;20477;-72
2022/06/11 03:18:26;;;;;;;3.10;0.40;;;15.10;99.90;;;;;;5055866;28;20036;-72
2022/06/11 03:20:52;;;;;;;4.57;0.20;;;15.00;99.90;;;;;;5055978;28;20036;-72
2022/06/11 03:23:18;;;;;;;1.95;0.20;;;15.00;99.90;;;;;;5055921;28;20474;-72
2022/06/11 03:25:45;;;;;;;6.80;0.05;;;14.90;99.90;;;;;;5037747;28;20021;-72
2022/06/11 03:28:15;;;;;;;3.90;0.10;;;14.90;99.90;;;;;;5055666;28;20029;-73
2022/06/11 03:30:41;;;;;;;13.77;0.80;;;14.80;99.90;;;;;;5055439;28;20040;-73
2022/06/11 03:33:07;;;;;;;4.55;0.45;;;14.80;99.90;;;;;;5055629;28;20378;-72
2022/06/11 03:35:33;;;;;;;6.88;0.25;;;14.80;99.90;;;;;;5055570;28;20031;-72
2022/06/11 03:38:00;;;;;;;7.35;0.82;;;14.80;99.90;;;;;;5056492;28;20096;-73
2022/06/11 03:40:26;;;;;;;5.25;0.70;;;14.70;99.90;;;;;;5037522;28;20043;-73
2022/06/11 03:42:51;;;;;;;5.30;0.38;;;14.70;99.90;;;;;;5055384;28;20485;-73
2022/06/11 03:45:17;;;;;;;7.18;0.20;;;14.60;99.90;;;;;;5055029;28;20025;-73
2022/06/11 03:47:44;;;;;;;5.57;1.15;;;14.60;99.90;;;;;;5054095;28;20032;-74
2022/06/11 03:50:26;;;;;;;4.25;0.75;;;14.70;99.90;;;;;;5037322;28;20028;-74
2022/06/11 03:52:52;;;;;;;2.10;0.13;;;14.70;99.90;;;;;;5055367;28;20522;-74
2022/06/11 03:55:19;;;;;;;10.35;1.48;;;14.60;99.90;;;;;;5055024;28;20048;-74
2022/06/11 03:57:45;;;;;;;5.13;0.60;;;14.60;99.90;;;;;;5055628;28;20139;-74
2022/06/11 04:00:15;;;;;;;10.70;0.63;;;14.70;99.90;;;;;;5055006;28;20032;-74
2022/06/11 04:02:41;;;;;;;7.07;0.55;;;14.70;99.90;;;;;;5055152;28;20025;-74
2022/06/11 04:05:07;;;;;;;3.20;0.55;;;14.70;99.90;;;;;;5036921;28;20021;-74
2022/06/11 04:07:33;;;;;;;4.18;0.15;;;14.70;99.90;;;;;;5054821;28;20099;-74
2022/06/11 04:09:59;;;;;;;4.93;0.17;;;14.70;99.90;;;;;;5036868;28;20036;-73
2022/06/11 04:12:25;;;;;;;6.13;0.22;;;14.70;99.90;;;;;;5054909;28;20021;-73
2022/06/11 04:14:51;;;;;;;4.90;0.25;;;14.80;99.90;;;;;;5054732;28;20017;-73
2022/06/11 04:17:22;;;;;;;8.13;0.63;;;14.80;99.90;;;;;;5055175;28;20025;-73
2022/06/11 04:19:49;;;;;;;6.47;0.55;;;14.80;99.90;;;;;;5054778;28;20396;-73
2022/06/11 04:22:15;;;;;;;9.23;0.88;;;14.80;99.90;;;;;;5054500;28;20018;-73
2022/06/11 04:24:42;;;;;;;8.85;0.47;;;14.80;99.90;;;;;;5054541;28;20540;-73
2022/06/11 04:27:10;;;;;;;6.40;0.30;;;14.90;99.90;;;;;;5054350;28;20385;-73
2022/06/11 04:29:39;;;;;;;9.13;0.90;;;15.00;99.90;;;;;;5054622;28;20143;-73
2022/06/11 04:32:05;;;;;;;;;;;15.00;99.90;;;;;;5054674;28;20029;-73
2022/06/11 04:34:31;;;;;;;6.97;0.20;;;15.00;99.90;;;;;;5054341;28;19904;-73
2022/06/11 04:36:59;;;;;;;6.65;0.30;;;15.00;99.90;;;;;;5054396;28;20027;-73
2022/06/11 04:39:28;;;;;;;5.28;0.20;;;15.00;99.90;;;;;;5054378;28;20021;-73
2022/06/11 04:41:54;;;;;;;4.72;0.20;;;15.10;99.90;;;;;;5036218;28;20056;-73
2022/06/11 04:44:20;;;;;;;4.70;0.43;;;15.20;99.90;;;;;;5054094;28;20025;-73
2022/06/11 04:46:46;;;;;;;4.15;0.52;;;15.40;99.90;;;;;;5035985;28;20393;-74
2022/06/11 04:49:13;;;;;;;5.78;1.02;;;15.30;99.90;;;;;;5053898;28;20119;-75
2022/06/11 04:51:39;;;;;;;4.28;0.50;;;15.40;99.90;;;;;;5053906;28;20033;-75
2022/06/11 04:54:06;;;;;;;7.03;0.52;;;15.40;99.90;;;;;;5053997;28;20096;-75
2022/06/11 04:56:32;;;;;;;7.53;1.38;;;15.40;99.90;;;;;;5053860;28;20047;-75
2022/06/11 04:58:58;;;;;;;1.95;0.30;;;15.50;99.90;;;;;;5053778;28;20029;-75
2022/06/11 05:01:25;;;;;;;8.55;1.15;;;15.50;99.90;;;;;;5036052;28;20050;-74
2022/06/11 05:03:51;;;;;;;7.28;0.22;;;15.90;99.90;;;;;;5053826;28;20056;-73
2022/06/11 05:06:20;;;;;;;10.80;0.45;;;15.60;99.90;;;;;;5053704;28;20047;-73
2022/06/11 05:08:46;;;;;;;8.55;1.13;;;15.60;99.90;;;;;;5054038;28;20079;-72
2022/06/11 05:11:11;;;;;;;9.68;1.08;;;15.70;99.90;;;;;;5053563;28;20056;-72
2022/06/11 05:13:37;;;;;;;9.13;0.60;;;15.70;99.90;;;;;;5053624;28;20112;-72
2022/06/11 05:16:03;;;;;;;5.40;0.40;;;15.80;99.90;;;;;;5053500;28;20079;-72
2022/06/11 05:18:31;;;;;;;10.77;1.55;;;15.80;99.90;;;;;;5053593;28;20516;-72
2022/06/11 05:20:56;;;;;;;15.30;1.15;;;16.10;99.90;;;;;;5035631;28;20033;-72
2022/06/11 05:23:22;;;;;;;7.57;0.40;;;16.00;99.90;;;;;;5035583;28;20448;-72
2022/06/11 05:25:50;;;;;;;11.98;0.45;;;16.10;99.90;;;;;;5053180;28;20493;-72
2022/06/11 05:28:25;;;;;;;3.83;0.63;;;16.20;99.90;;;;;;5053303;28;20108;-72
2022/06/11 05:30:52;;;;;;;9.30;0.52;;;16.20;99.90;;;;;;5053040;28;20056;-72
2022/06/11 05:33:18;;;;;;;14.82;0.70;;;16.20;99.90;;;;;;5053881;28;20100;-72
2022/06/11 05:35:45;;;;;;;9.60;0.70;;;16.20;99.90;;;;;;5053544;28;20458;-72
2022/06/11 05:38:15;;;;;;;6.88;1.17;;;16.30;99.90;;;;;;5035272;28;20048;-73
2022/06/11 05:40:43;;;;;;;9.15;1.00;;;16.40;99.90;;;;;;5053289;28;20029;-73
2022/06/11 05:43:09;;;;;;;5.57;0.73;;;16.50;99.90;;;;;;5053113;28;20037;-74
2022/06/11 05:45:41;;;;;;;11.35;1.25;;;16.50;99.90;;;;;;5053106;28;20108;-73
2022/06/11 05:48:08;;;;;;;10.52;1.23;;;16.60;99.90;;;;;;5053104;28;20116;-73
2022/06/11 05:50:36;;;;;;;17.98;2.20;;;16.60;99.90;;;;;;5053628;28;20022;-73
2022/06/11 05:53:04;;;;;;;11.57;1.67;;;16.50;99.90;;;;;;5035271;28;20033;-73
2022/06/11 05:55:33;;;;;;;15.40;1.48;;;16.50;99.90;;;;;;5035663;28;20017;-73
2022/06/11 05:58:02;;;;;;;9.52;0.52;;;16.40;99.90;;;;;;5053351;28;20023;-73
2022/06/11 06:00:29;;;;;;;7.57;0.82;;;16.60;99.90;;;;;;5035566;28;20047;-73
2022/06/11 06:02:55;;;;;;;6.75;0.90;;;16.90;99.90;;;;;;5053111;28;20025;-72
2022/06/11 06:05:27;;;;;;;7.88;0.73;;;16.70;99.90;;;;;;5053015;28;20017;-73
2022/06/11 06:07:52;;;;;;;14.23;1.23;;;16.70;99.90;;;;;;5054116;28;20043;-73
2022/06/11 06:10:19;;;;;;;9.82;1.08;;;16.60;99.90;;;;;;5052923;28;20099;-75
2022/06/11 06:12:45;;;;;;;14.20;1.30;;;16.80;99.90;;;;;;5056696;28;20034;-72
2022/06/11 06:15:14;;;;;;;12.00;0.90;;;16.70;99.90;;;;;;5057433;28;20027;-72
2022/06/11 06:17:40;;;;;;;14.52;1.08;;;16.80;99.90;;;;;;5057158;28;20028;-73
2022/06/11 06:20:09;;;;;;;15.02;1.55;;;17.00;99.90;;;;;;5056911;28;20474;-73
2022/06/11 06:22:35;;;;;;;10.75;1.02;;;17.00;99.90;;;;;;5056826;28;20374;-74
2022/06/11 06:25:01;;;;;;;11.15;1.10;;;17.20;99.90;;;;;;5056997;28;20104;-75
2022/06/11 06:27:27;;;;;;;12.88;1.52;;;17.20;99.90;;;;;;5056665;28;20056;-74
2022/06/11 06:29:53;;;;;;;23.42;1.17;;;17.20;99.90;;;;;;5056925;28;20413;-73
2022/06/11 06:32:18;;;;;;;14.63;1.48;;;17.40;99.90;;;;;;5056861;28;20029;-74
2022/06/11 06:34:44;;;;;;;9.35;0.75;;;17.50;99.90;;;;;;5057645;28;20366;-74
2022/06/11 06:37:11;;;;;;;12.05;0.90;;;17.70;99.90;;;;;;5056305;28;20025;-73
2022/06/11 06:39:37;;;;;;;12.13;1.30;;;17.80;99.90;;;;;;5056447;28;20018;-73
2022/06/11 06:42:03;;;;;;;11.13;1.85;;;17.80;99.90;;;;;;5056408;28;20035;-73
2022/06/11 06:44:28;;;;;;;15.73;0.85;;;17.80;99.90;;;;;;5056775;28;20021;-73
2022/06/11 06:46:54;;;;;;;9.57;1.38;;;17.80;99.90;;;;;;5056303;28;20027;-73
2022/06/11 06:49:20;;;;;;;10.73;1.48;;;17.80;99.90;;;;;;5064743;28;20477;-73
2022/06/11 06:51:45;;;;;;;9.70;0.75;;;17.80;99.90;;;;;;5075075;28;20021;-73
2022/06/11 06:54:11;;;;;;;5.65;0.50;;;17.90;99.90;;;;;;5076235;28;20385;-73
2022/06/11 06:56:37;;;;;;;15.32;1.42;;;18.00;99.90;;;;;;5076189;28;20052;-73
2022/06/11 06:59:04;;;;;;;6.93;0.40;;;18.10;99.90;;;;;;5074800;28;20024;-73
2022/06/11 07:01:30;;;;;;;15.90;1.63;;;18.20;99.90;;;;;;5076563;28;20520;-73
2022/06/11 07:03:56;;;;;;;13.50;0.95;;;18.30;99.90;;;;;;5076125;28;20020;-73
2022/06/11 07:06:23;;;;;;;10.20;1.20;;;18.40;99.90;;;;;;5075810;28;20029;-73
2022/06/11 07:08:50;;;;;;;7.63;0.38;;;18.60;99.90;;;;;;5075939;28;20036;-74
2022/06/11 07:11:16;;;;;;;12.30;0.80;;;18.60;99.90;;;;;;5075928;28;20369;-74
2022/06/11 07:13:42;;;;;;;9.00;0.50;;;18.70;99.90;;;;;;5074507;28;20017;-73
2022/06/11 07:16:08;;;;;;;8.70;0.90;;;18.90;99.90;;;;;;5076073;28;20021;-76
2022/06/11 07:18:36;;;;;;;9.13;0.63;;;18.90;99.90;;;;;;5075765;28;20383;-76
2022/06/11 07:21:05;;;;;;;11.18;1.52;;;19.00;99.90;;;;;;5076104;28;20038;-75
2022/06/11 07:23:36;;;;;;;6.30;0.15;;;19.10;99.90;;;;;;5074573;28;20039;-77
2022/06/11 07:26:06;;;;;;;8.90;1.00;;;19.30;99.90;;;;;;5074570;28;20057;-77
2022/06/11 07:28:42;;;;;;;9.60;1.15;;;19.40;99.90;;;;;;5074541;28;20021;-76
2022/06/11 07:31:08;;;;;;;8.35;0.93;;;19.30;99.90;;;;;;5075481;28;20021;-75
2022/06/11 07:33:33;;;;;;;4.93;0.60;;;19.40;99.90;;;;;;5075574;28;20025;-75
2022/06/11 07:35:59;;;;;;;8.32;0.65;;;19.60;99.90;;;;;;5075404;28;20470;-75
2022/06/11 07:38:25;;;;;;;9.27;0.80;;;19.70;99.90;;;;;;5075889;28;20043;-75
2022/06/11 07:40:51;;;;;;;8.77;0.20;;;19.70;99.90;;;;;;5075730;28;20107;-76
2022/06/11 07:43:17;;;;;;;6.43;1.00;;;19.80;99.90;;;;;;5074675;28;20017;-76
2022/06/11 07:45:44;;;;;;;7.38;0.43;;;19.90;99.90;;;;;;5075576;28;20036;-76
2022/06/11 07:48:10;;;;;;;6.63;0.95;;;19.90;99.90;;;;;;5074091;28;20478;-75
2022/06/11 07:50:40;;;;;;;10.13;1.58;;;19.90;99.90;;;;;;5075199;28;20397;-75
2022/06/11 07:53:06;;;;;;;8.82;1.42;;;20.00;99.90;;;;;;5073846;28;20116;-74
2022/06/11 07:55:34;;;;;;;9.13;0.95;;;20.10;99.90;;;;;;5075603;28;20025;-74
2022/06/11 07:58:00;;;;;;;7.25;0.22;;;20.10;99.90;;;;;;5073634;28;20108;-73
2022/06/11 08:00:30;;;;;;;7.50;0.40;;;20.20;99.90;;;;;;5074984;28;20029;-74
2022/06/11 08:02:56;;;;;;;7.28;0.25;;;20.20;99.90;;;;;;5074885;28;20017;-74
2022/06/11 08:05:21;;;;;;;9.80;0.25;;;20.20;99.90;;;;;;5074765;28;20024;-74
2022/06/11 08:07:48;;;;;;;6.32;0.10;;;20.30;99.90;;;;;;5073560;28;20017;-74
2022/06/11 08:10:15;;;;;;;6.13;0.10;;;20.40;99.90;;;;;;5074611;28;20054;-73
2022/06/11 08:12:41;;;;;;;5.63;0.10;;;20.60;99.90;;;;;;5074738;28;20035;-73
2022/06/11 08:15:07;;;;;;;7.20;0.75;;;20.80;99.90;;;;;;5074850;28;20377;-73
2022/06/11 08:17:34;;;;;;;8.10;0.40;;;20.90;99.90;;;;;;5075066;28;20074;-73
2022/06/11 08:20:00;;;;;;;8.57;1.10;;;21.10;99.90;;;;;;5074609;28;20537;-73
2022/06/11 08:22:26;;;;;;;5.43;0.77;;;21.30;99.90;;;;;;5074748;28;20120;-73
2022/06/11 08:24:51;;;;;;;6.65;0.20;;;21.10;96.20;;;;;;5073229;28;20112;-73
2022/06/11 08:27:17;;;;;;;9.82;0.20;;;21.00;99.60;;;;;;5073198;28;20025;-75
2022/06/11 08:29:44;;;;;;;5.07;0.20;;;20.90;96.10;;;;;;5074399;28;20024;-74
2022/06/11 08:32:12;;;;;;;8.80;0.65;;;20.60;98.00;;;;;;5074216;28;20054;-74
2022/06/11 08:34:41;;;;;;;8.27;0.25;;;20.70;98.30;;;;;;5072700;28;20021;-75
2022/06/11 08:37:08;;;;;;;;;;;20.80;99.70;;;;;;5074644;28;20017;-75
2022/06/11 08:39:34;;;;;;;9.95;1.70;;;20.80;95.90;;;;;;5074661;28;19912;-75
2022/06/11 08:42:00;;;;;;;9.40;0.63;;;20.80;95.80;;;;;;5074275;28;20040;-75
2022/06/11 08:44:28;;;;;;;7.07;0.40;;;21.00;99.70;;;;;;5074711;28;20384;-76
2022/06/11 08:46:57;;;;;;;8.70;1.10;;;21.10;97.10;;;;;;5074159;28;20030;-76
2022/06/11 08:49:38;;;;;;;4.32;0.28;;;21.10;96.10;;;;;;5058743;28;20033;-76
2022/06/11 08:52:13;;;;;;;8.55;0.75;;;21.20;97.20;;;;;;5054483;28;20029;-77
2022/06/11 08:54:46;;;;;;;7.10;0.30;;;21.30;95.40;;;;;;5054299;28;20023;-76
2022/06/11 08:57:15;;;;;;;6.93;0.63;;;21.40;95.80;;;;;;5035952;28;20128;-76
2022/06/11 09:00:02;;;;;;;6.70;0.75;;;21.40;96.40;;;;;;5053773;28;20013;-76
2022/06/11 09:03:06;;;;;;;7.13;0.52;;;21.50;96.30;;;;;;5035945;28;20121;-75
2022/06/11 09:05:58;;;;;;;6.20;0.35;;;21.80;94.10;;;;;;5035891;28;20195;-76
2022/06/11 09:08:26;;;;;;;2.47;0.20;;;21.90;92.90;;;;;;5054311;28;20108;-76
2022/06/11 09:11:39;;;;;;;8.70;0.65;;;21.80;95.40;;;;;;5053796;28;20033;-75
2022/06/11 09:14:11;;;;;;;11.55;1.33;;;21.80;95.50;;;;;;5009260;28;20021;-76
2022/06/11 09:17:06;;;;;;;11.48;0.38;;;21.90;92.50;;;;;;5053693;28;20473;-76
2022/06/11 09:20:04;;;;;;;7.78;0.20;;;21.90;91.40;;;;;;5053723;28;20025;-77
2022/06/11 09:23:00;;;;;;;10.30;0.82;;;21.90;90.70;;;;;;5035840;28;20029;-76
2022/06/11 09:25:38;;;;;;;8.25;0.95;;;21.70;93.80;;;;;;5035548;28;20123;-76
2022/06/11 09:28:38;;;;;;;8.50;0.30;;;21.70;91.00;;;;;;5035764;28;20120;-76
2022/06/11 09:31:20;;;;;;;8.60;1.17;;;21.60;91.80;;;;;;5053313;28;20035;-76
2022/06/11 09:34:26;;;;;;;10.43;0.63;;;21.70;92.40;;;;;;5053686;28;20017;-76
2022/06/11 09:37:02;;;;;;;5.90;0.40;;;22.10;95.40;;;;;;5053347;28;20029;-75
2022/06/11 09:39:36;;;;;;;8.25;0.55;;;22.30;94.00;;;;;;5035361;28;20021;-75
2022/06/11 09:42:28;;;;;;;5.65;0.55;;;22.20;91.80;;;;;;5035379;28;20032;-76
2022/06/11 09:45:21;;;;;;;4.50;0.50;;;21.90;89.00;;;;;;5053371;28;20029;-76
2022/06/11 09:48:03;;;;;;;8.27;0.35;;;21.60;91.40;;;;;;5052862;28;20368;-74
2022/06/11 09:50:45;;;;;;;5.22;0.20;;;21.90;88.90;;;;;;5052954;28;20116;-75
2022/06/11 09:53:29;;;;;;;8.85;0.52;;;22.00;90.30;;;;;;5053113;28;20471;-74
2022/06/11 09:56:08;;;;;;;5.32;0.22;;;22.10;94.00;;;;;;5052891;28;20025;-74
2022/06/11 09:58:33;;;;;;;;;;;22.20;94.10;;;;;;5053818;28;20489;-77
2022/06/11 10:01:03;;;;;;;6.95;0.55;;;22.20;88.90;;;;;;5035429;28;19932;-75
2022/06/11 10:03:52;;;;;;;9.65;1.52;;;22.20;85.20;;;;;;5053064;28;20070;-72
2022/06/11 10:06:37;;;;;;;9.60;0.88;;;22.30;85.90;;;;;;5035076;28;20120;-76
2022/06/11 10:09:09;;;;;;;7.60;0.15;;;22.30;87.60;;;;;;5053492;28;20071;-73
2022/06/11 10:11:46;;;;;;;8.95;0.95;;;22.40;90.30;;;;;;5053341;28;20116;-74
2022/06/11 10:14:38;;;;;;;6.20;0.10;;;22.50;86.60;;;;;;5052799;28;20103;-73
2022/06/11 10:17:27;;;;;;;4.53;0.30;;;22.40;88.20;;;;;;5042086;28;20196;-73
2022/06/11 10:20:20;;;;;;;12.95;0.95;;;22.70;85.30;;;;;;5053214;28;20028;-73
2022/06/11 10:23:04;;;;;;;3.83;0.38;;;22.80;85.50;;;;;;5052909;28;20029;-74
2022/06/11 10:25:52;;;;;;;5.85;0.60;;;23.00;84.70;;;;;;5052755;28;20025;-73
2022/06/11 10:28:21;;;;;;;9.48;0.38;;;23.10;88.10;;;;;;5034824;28;20431;-73
2022/06/11 10:30:58;;;;;;;3.97;1.10;;;23.10;85.10;;;;;;5052695;28;20077;-73
2022/06/11 10:33:42;;;;;;;11.77;0.57;;;23.30;84.00;;;;;;5052893;28;20060;-73
2022/06/11 10:36:15;;;;;;;10.65;0.77;;;23.40;86.60;;;;;;5052669;28;20024;-73
2022/06/11 10:38:52;;;;;;;8.20;0.30;;;23.50;79.60;;;;;;5052713;28;20485;-73
2022/06/11 10:41:32;;;;;;;7.32;0.40;;;23.70;81.60;;;;;;5052726;28;20098;-73
2022/06/11 10:44:12;;;;;;;7.57;0.45;;;23.60;78.10;;;;;;5052657;28;20029;-73
2022/06/11 10:46:39;;;;;;;7.35;0.75;;;23.90;80.50;;;;;;5052680;28;20112;-73
2022/06/11 10:49:13;;;;;;;9.30;0.93;;;24.00;82.00;;;;;;5095005;23;20496;-73
2022/06/11 10:51:39;;;;;;;6.78;0.20;;;23.90;81.00;;;;;;5113284;28;20103;-72
2022/06/11 10:54:14;;;;;;;6.00;0.52;;;23.60;81.50;;;;;;5113669;28;20479;-73
2022/06/11 10:56:44;;;;;;;6.28;0.93;;;23.30;81.20;;;;;;5113341;28;20051;-73
2022/06/11 10:59:25;;;;;;;5.55;0.80;;;23.10;81.90;;;;;;5116932;28;20020;-73
2022/06/11 11:02:02;;;;;;;5.30;0.40;;;23.00;83.00;;;;;;5098596;28;20020;-72
2022/06/11 11:04:41;;;;;;;10.13;0.85;;;22.60;84.60;;;;;;5098547;28;20099;-73
2022/06/11 11:07:08;;;;;;;;;;;22.40;89.30;;;;;;5117005;28;20024;-72
2022/06/11 11:09:33;;;;;;;5.63;0.80;;;22.40;85.20;;;;;;5116534;28;20336;-72
2022/06/11 11:12:06;;;;;;;9.45;0.82;;;22.40;90.90;;;;;;5098264;28;20100;-72
2022/06/11 11:14:41;;;;;;;8.10;1.08;;;22.40;87.90;;;;;;5116608;28;20022;-72
2022/06/11 11:17:19;;;;;;;8.73;0.25;;;22.50;91.00;;;;;;5116454;28;20019;-72
2022/06/11 11:22:41;;;;;;;6.30;0.43;;;22.70;91.00;;;;;;5117179;28;20030;-73
2022/06/11 11:25:15;;;;;;;7.63;0.63;;;22.80;90.30;;;;;;5116472;28;20028;-72
2022/06/11 11:27:46;;;;;;;8.18;0.60;;;22.80;90.10;;;;;;5116258;28;20023;-72
2022/06/11 11:30:17;;;;;;;7.20;0.43;;;22.80;91.10;;;;;;5116178;28;20468;-72
2022/06/11 11:32:45;;;;;;;6.57;0.88;;;22.60;91.40;;;;;;5116283;28;20419;-72
2022/06/11 11:35:17;;;;;;;9.90;0.63;;;22.70;91.50;;;;;;5116166;28;20054;-73
2022/06/11 11:37:44;;;;;;;7.35;0.63;;;22.60;93.40;;;;;;5097744;28;20020;-73
2022/06/11 11:40:34;;;;;;;9.65;0.70;;;22.70;92.00;;;;;;5116250;28;20023;-73
2022/06/11 11:43:10;;;;;;;9.43;0.30;;;22.60;90.70;;;;;;5097798;28;20020;-73
2022/06/11 11:45:57;;;;;;;9.70;0.22;;;22.60;93.70;;;;;;5097653;28;20590;-73
2022/06/11 11:48:48;;;;;;;11.65;1.38;;;22.80;92.40;;;;;;5097569;28;20023;-73
2022/06/11 11:51:37;;;;;;;4.45;0.80;;;23.10;92.80;;;;;;5098293;28;20120;-72
2022/06/11 11:54:22;;;;;;;6.55;0.85;;;22.90;92.50;;;;;;5115749;28;20020;-72
2022/06/11 11:56:58;;;;;;;5.07;0.43;;;23.20;92.50;;;;;;5097630;28;20380;-73
2022/06/11 11:59:37;;;;;;;4.90;0.40;;;23.90;87.60;;;;;;5115738;28;20072;-75
2022/06/11 12:02:24;;;;;;;11.15;0.50;;;24.20;82.60;;;;;;5115584;28;20096;-75
2022/06/11 12:04:56;;;;;;;9.13;0.40;;;24.70;87.70;;;;;;5097311;28;20430;-75
2022/06/11 12:07:32;;;;;;;7.18;0.45;;;25.00;79.40;;;;;;5115790;28;20080;-75
2022/06/11 12:10:22;;;;;;;6.55;0.43;;;25.20;82.20;;;;;;5114822;28;20023;-75
2022/06/11 12:12:51;;;;;;;9.13;0.75;;;25.60;81.40;;;;;;5114592;28;20040;-75
2022/06/11 12:15:20;;;;;;;4.93;0.30;;;26.00;77.20;;;;;;5115323;28;20026;-75
2022/06/11 12:18:01;;;;;;;5.93;0.25;;;26.10;71.50;;;;;;5115432;28;20561;-75
2022/06/11 12:20:50;;;;;;;5.72;0.10;;;25.80;70.90;;;;;;5097206;28;20031;-75
2022/06/11 12:23:27;;;;;;;7.75;0.40;;;25.40;68.30;;;;;;5115126;28;20016;-75
2022/06/11 12:26:25;;;;;;;6.53;0.73;;;25.30;73.30;;;;;;5115435;28;20422;-75
2022/06/11 12:29:05;;;;;;;6.82;0.10;;;25.20;73.00;;;;;;5115034;28;20487;-75
2022/06/11 12:31:33;;;;;;;5.05;0.05;;;25.40;73.80;;;;;;5115273;28;20015;-75
2022/06/11 12:34:04;;;;;;;13.57;1.27;;;25.70;66.10;;;;;;5096684;28;20016;-75
2022/06/11 12:36:59;;;;;;;5.25;0.40;;;25.60;63.20;;;;;;5114757;28;20081;-75
2022/06/11 12:39:33;;;;;;;5.90;0.40;;;25.50;66.50;;;;;;5114885;28;20024;-75
2022/06/11 12:42:08;;;;;;;5.75;0.65;;;25.50;62.30;;;;;;5114744;28;20075;-75
2022/06/11 12:44:40;;;;;;;2.67;0.00;;;25.60;63.00;;;;;;5096610;28;20042;-75
2022/06/11 12:47:12;;;;;;;3.60;0.65;;;25.60;62.60;;;;;;5114703;28;20387;-75
2022/06/11 12:49:49;;;;;;;2.50;0.32;;;25.40;63.20;;;;;;5114544;28;20039;-75
2022/06/11 12:52:30;;;;;;;3.47;0.30;;;25.50;65.10;;;;;;5114668;28;20115;-75
2022/06/11 12:55:17;;;;;;;7.40;0.63;;;25.70;63.60;;;;;;5096304;28;20057;-75
2022/06/11 12:58:18;;;;;;;3.97;0.40;;;25.80;65.70;;;;;;5114402;28;20107;-74
2022/06/11 13:00:57;;;;;;;20.75;0.63;;;26.10;63.40;;;;;;5069481;28;20092;-74
2022/06/11 13:03:31;;;;;;;4.20;0.10;;;26.00;58.10;;;;;;5114838;28;20050;-75
2022/06/11 13:06:26;;;;;;;7.97;0.70;;;26.10;60.30;;;;;;5114550;28;20020;-74
2022/06/11 13:09:24;;;;;;;7.20;0.57;;;25.90;58.40;;;;;;5096167;28;20445;-75
2022/06/11 13:12:08;;;;;;;4.65;0.40;;;25.90;59.20;;;;;;5114264;28;20045;-75
2022/06/11 13:15:04;;;;;;;8.18;0.45;;;25.70;61.80;;;;;;5096808;28;20032;-73
2022/06/11 13:18:05;;;;;;;2.40;0.17;;;25.50;57.90;;;;;;5114258;28;20019;-73
2022/06/11 13:20:54;;;;;;;8.23;0.57;;;24.80;60.00;;;;;;5113579;28;20106;-75
2022/06/11 13:23:37;;;;;;;4.60;0.20;;;24.80;64.10;;;;;;5114051;28;20023;-75
2022/06/11 13:26:35;;;;;;;3.03;0.20;;;24.80;64.50;;;;;;5114106;28;20015;-75